createdAt,value
2023-03-08T00:01:26.765Z,14.87
2023-03-08T00:03:55.607Z,16.90
2023-03-08T00:06:23.837Z,12.13
2023-03-08T00:08:54.917Z,13.13
2023-03-08T00:11:22.938Z,12.43
2023-03-08T00:13:50.994Z,14.30
2023-03-08T00:16:19.232Z,12.10
2023-03-08T00:18:46.976Z,11.20
2023-03-08T00:21:16.092Z,14.43
2023-03-08T00:23:44.913Z,14.67
2023-03-08T00:26:12.690Z,15.97
2023-03-08T00:28:40.765Z,12.53
2023-03-08T00:31:13.323Z,12.70
2023-03-08T00:33:41.110Z,15.77
2023-03-08T00:36:16.341Z,9.70
2023-03-08T00:38:43.853Z,16.77
2023-03-08T00:41:11.080Z,13.57
2023-03-08T00:43:38.825Z,13.93
2023-03-08T00:46:07.458Z,11.40
2023-03-08T00:48:35.475Z,16.70
2023-03-08T00:51:02.986Z,16.67
2023-03-08T00:53:31.428Z,14.23
2023-03-08T00:56:00.125Z,14.00
2023-03-08T00:58:28.862Z,16.57
2023-03-08T01:00:56.858Z,18.53
2023-03-08T01:03:24.831Z,18.90
2023-03-08T01:05:54.097Z,16.07
2023-03-08T01:08:22.437Z,14.10
2023-03-08T01:10:50.802Z,13.70
2023-03-08T01:13:19.157Z,12.63
2023-03-08T01:15:46.781Z,16.97
2023-03-08T01:18:14.240Z,14.03
2023-03-08T01:20:42.394Z,11.07
2023-03-08T01:23:10.727Z,21.30
2023-03-08T01:25:39.025Z,16.13
2023-03-08T01:28:07.141Z,12.33
2023-03-08T01:30:35.061Z,12.10
2023-03-08T01:33:03.180Z,13.07
2023-03-08T01:35:30.765Z,13.10
2023-03-08T01:37:58.784Z,11.87
2023-03-08T01:40:26.921Z,16.97
2023-03-08T01:42:55.067Z,20.07
2023-03-08T01:45:59.478Z,14.83
2023-03-08T01:48:28.527Z,17.80
2023-03-08T01:50:56.875Z,12.70
2023-03-08T01:53:24.832Z,13.73
2023-03-08T01:55:52.400Z,19.77
2023-03-08T01:58:20.597Z,14.83
2023-03-08T02:00:48.740Z,13.23
2023-03-08T02:03:15.934Z,15.27
2023-03-08T02:05:43.549Z,17.67
2023-03-08T02:08:11.668Z,12.40
2023-03-08T02:10:38.703Z,12.27
2023-03-08T02:13:07.430Z,17.17
2023-03-08T02:15:35.287Z,15.17
2023-03-08T02:18:03.322Z,12.73
2023-03-08T02:20:38.345Z,14.00
2023-03-08T02:23:16.248Z,14.10
2023-03-08T02:25:51.099Z,15.47
2023-03-08T02:28:19.533Z,17.17
2023-03-08T02:30:47.175Z,21.07
2023-03-08T02:33:14.780Z,18.33
2023-03-08T02:35:44.347Z,16.77
2023-03-08T02:38:13.391Z,14.20
2023-03-08T02:40:41.263Z,18.40
2023-03-08T02:43:09.175Z,17.07
2023-03-08T02:45:36.305Z,15.40
2023-03-08T02:48:04.490Z,18.40
2023-03-08T02:50:32.014Z,16.53
2023-03-08T02:53:00.385Z,15.87
2023-03-08T02:55:27.910Z,19.63
2023-03-08T02:57:55.973Z,13.83
2023-03-08T03:00:24.212Z,14.17
2023-03-08T03:02:52.313Z,14.60
2023-03-08T03:05:20.091Z,15.63
2023-03-08T03:07:48.228Z,14.57
2023-03-08T03:10:16.386Z,15.53
2023-03-08T03:12:44.725Z,15.07
2023-03-08T03:15:14.080Z,18.63
2023-03-08T03:17:42.202Z,18.33
2023-03-08T03:20:13.530Z,13.93
2023-03-08T03:22:41.598Z,15.47
2023-03-08T03:25:10.278Z,17.17
2023-03-08T03:27:38.407Z,11.73
2023-03-08T03:30:08.690Z,18.87
2023-03-08T03:32:36.916Z,15.87
2023-03-08T03:35:05.936Z,12.47
2023-03-08T03:37:35.336Z,14.00
2023-03-08T03:40:04.000Z,17.47
2023-03-08T03:42:32.752Z,14.87
2023-03-08T03:45:00.778Z,15.17
2023-03-08T03:47:29.422Z,15.17
2023-03-08T03:49:56.894Z,17.57
2023-03-08T03:52:25.125Z,20.23
2023-03-08T03:54:52.649Z,19.20
2023-03-08T03:57:21.411Z,21.33
2023-03-08T03:59:49.055Z,17.50
2023-03-08T04:02:16.720Z,15.37
2023-03-08T04:04:44.510Z,14.47
2023-03-08T04:07:14.081Z,15.00
2023-03-08T04:09:44.663Z,20.60
2023-03-08T04:12:13.472Z,16.10
2023-03-08T04:14:41.599Z,25.80
2023-03-08T04:17:09.769Z,18.90
2023-03-08T04:22:14.319Z,14.70
2023-03-08T04:24:42.747Z,19.27
2023-03-08T04:27:11.564Z,15.73
2023-03-08T04:29:40.006Z,14.10
2023-03-08T04:45:30.732Z,13.13
2023-03-08T05:01:23.200Z,14.23
2023-03-08T05:03:52.195Z,18.50
2023-03-08T05:06:20.266Z,11.40
2023-03-08T05:11:27.768Z,11.77
2023-03-08T05:13:57.527Z,11.97
2023-03-08T05:16:26.487Z,14.63
2023-03-08T05:18:54.190Z,11.13
2023-03-08T05:21:23.018Z,17.47
2023-03-08T05:23:52.008Z,13.17
2023-03-08T06:11:09.764Z,15.97
2023-03-08T06:13:37.722Z,16.23
2023-03-08T06:16:07.362Z,18.77
2023-03-08T06:18:36.729Z,15.97
2023-03-08T11:28:57.932Z,18.47
2023-03-08T13:39:32.542Z,12.57
2023-03-08T13:42:11.011Z,14.93
2023-03-08T13:44:38.223Z,12.80
2023-03-08T13:47:23.641Z,11.55
2023-03-08T13:49:52.006Z,19.85
2023-03-08T13:52:31.341Z,11.75
2023-03-08T13:55:00.242Z,12.98
2023-03-08T13:57:30.316Z,12.57
2023-03-08T13:59:59.617Z,10.82
2023-03-08T14:02:29.057Z,13.73
2023-03-08T14:48:40.073Z,11.00
2023-03-08T15:36:06.031Z,11.90
2023-03-08T15:38:34.826Z,16.43
2023-03-08T15:41:05.276Z,15.40
2023-03-08T15:48:51.358Z,13.10
2023-03-08T15:56:58.612Z,16.20
2023-03-08T15:59:26.837Z,16.27
2023-03-08T16:01:55.700Z,18.60
2023-03-08T16:04:24.223Z,15.17
2023-03-08T16:06:52.943Z,14.03
2023-03-08T16:09:23.076Z,16.87
2023-03-08T16:11:52.535Z,16.87
2023-03-08T16:14:21.806Z,13.80
2023-03-08T16:51:50.466Z,18.27
2023-03-08T16:54:18.715Z,15.60
2023-03-08T16:56:48.209Z,15.03
2023-03-08T17:23:34.504Z,25.93
2023-03-08T17:26:06.041Z,25.60
2023-03-08T17:28:35.048Z,19.37
2023-03-08T17:31:03.506Z,27.57
2023-03-08T17:33:32.156Z,20.77
2023-03-08T17:36:02.191Z,22.93
2023-03-08T17:38:29.892Z,24.57
2023-03-08T17:40:58.680Z,21.53
2023-03-08T17:43:27.621Z,27.53
2023-03-08T17:51:23.704Z,28.93
2023-03-08T17:53:51.954Z,22.60
2023-03-08T17:56:21.694Z,22.67
2023-03-08T17:58:51.015Z,17.47
2023-03-08T18:01:23.963Z,24.80
2023-03-08T18:03:52.066Z,23.03
2023-03-08T18:06:28.898Z,21.17
2023-03-08T18:11:24.956Z,21.63
2023-03-08T18:16:35.331Z,22.80
2023-03-08T18:19:03.713Z,26.23
2023-03-08T18:21:32.983Z,29.57
2023-03-08T18:24:01.714Z,23.43
2023-03-08T18:26:30.028Z,19.20
2023-03-08T18:28:58.816Z,17.53
2023-03-08T18:31:26.810Z,19.17
2023-03-08T18:33:58.370Z,21.23
2023-03-08T18:36:26.954Z,19.73
2023-03-08T18:38:57.873Z,25.63
2023-03-08T18:41:28.705Z,22.47
2023-03-08T18:43:56.466Z,18.17
2023-03-08T18:54:29.479Z,21.37
2023-03-08T19:21:08.543Z,21.63
2023-03-08T19:23:59.490Z,22.73
2023-03-08T19:26:38.010Z,23.03
2023-03-08T19:29:22.374Z,21.90
2023-03-08T19:32:02.189Z,22.30
2023-03-08T19:34:38.257Z,59.47
2023-03-08T19:37:06.560Z,44.70
2023-03-08T19:39:36.823Z,24.83
2023-03-08T19:42:08.832Z,26.77
2023-03-08T19:44:38.043Z,23.87
2023-03-08T19:47:07.109Z,25.70
2023-03-08T19:49:39.741Z,20.13
2023-03-08T19:52:07.928Z,21.57
2023-03-08T19:54:36.773Z,21.63
2023-03-08T19:57:05.220Z,21.97
2023-03-08T19:59:34.223Z,23.47
2023-03-08T20:02:02.648Z,23.70
2023-03-08T20:04:31.048Z,28.93
2023-03-08T20:07:04.407Z,26.73
2023-03-08T20:09:33.198Z,19.83
2023-03-08T20:12:02.360Z,26.00
2023-03-08T20:14:33.120Z,23.47
2023-03-08T20:17:02.007Z,21.13
2023-03-08T20:19:32.020Z,20.20
2023-03-08T20:22:01.844Z,23.80
2023-03-08T20:24:38.367Z,21.30
2023-03-08T20:29:34.643Z,18.27
2023-03-08T20:32:10.017Z,21.57
2023-03-08T20:34:38.854Z,16.20
2023-03-08T20:37:07.691Z,19.27
2023-03-08T20:39:36.388Z,18.00
2023-03-08T20:42:05.780Z,19.37
2023-03-08T20:44:34.323Z,17.60
2023-03-08T20:47:03.247Z,19.10
2023-03-08T20:49:36.742Z,19.87
2023-03-08T20:52:06.299Z,20.83
2023-03-08T20:54:35.387Z,23.13
2023-03-08T20:57:05.669Z,19.60
2023-03-08T20:59:35.106Z,19.17
2023-03-08T21:02:04.006Z,21.47
2023-03-08T21:04:32.652Z,21.47
2023-03-08T21:07:00.455Z,20.47
2023-03-08T21:09:29.369Z,22.47
2023-03-08T21:11:57.954Z,21.90
2023-03-08T21:14:26.784Z,20.77
2023-03-08T21:16:55.915Z,19.03
2023-03-08T21:19:25.140Z,21.83
2023-03-08T21:21:53.146Z,22.87
2023-03-08T21:24:25.593Z,21.13
2023-03-08T21:26:54.070Z,19.67
2023-03-08T21:29:22.970Z,22.60
2023-03-08T21:31:51.153Z,20.47
2023-03-08T21:34:19.972Z,24.83
2023-03-08T21:36:48.608Z,23.97
2023-03-08T21:39:18.142Z,22.17
2023-03-08T21:41:49.452Z,24.57
2023-03-08T21:44:20.876Z,21.30
2023-03-08T21:46:49.425Z,22.30
2023-03-08T21:49:19.989Z,22.43
2023-03-08T21:51:48.806Z,24.73
2023-03-08T21:54:17.875Z,22.80
2023-03-08T21:56:47.027Z,23.47
2023-03-08T21:59:16.880Z,27.97
2023-03-08T22:01:48.407Z,21.13
2023-03-08T22:04:18.340Z,25.17
2023-03-08T22:06:47.794Z,22.77
2023-03-08T22:09:17.146Z,22.57
2023-03-08T22:11:45.836Z,26.70
2023-03-08T22:14:14.644Z,27.47
2023-03-08T22:16:42.672Z,23.20
2023-03-08T22:19:11.974Z,22.73
2023-03-08T22:21:40.711Z,20.97
2023-03-08T22:24:14.116Z,23.20
2023-03-08T22:26:43.527Z,23.23
2023-03-08T22:29:11.843Z,21.67
2023-03-08T22:31:40.411Z,23.30
2023-03-08T22:34:09.713Z,24.47
2023-03-08T22:36:39.160Z,22.80
2023-03-08T22:39:08.085Z,23.57
2023-03-08T22:41:39.010Z,18.77
2023-03-08T22:44:06.616Z,23.50
2023-03-08T22:46:35.592Z,31.27
2023-03-08T22:49:05.138Z,21.60
2023-03-08T22:51:34.569Z,22.87
2023-03-08T22:54:05.759Z,20.50
2023-03-08T22:56:34.033Z,24.23
2023-03-08T22:59:03.481Z,22.80
2023-03-08T23:01:33.305Z,24.23
2023-03-08T23:04:02.450Z,21.57
2023-03-08T23:06:30.845Z,25.70
2023-03-08T23:09:02.734Z,25.43
2023-03-08T23:11:31.862Z,22.10
2023-03-08T23:14:01.216Z,23.80
2023-03-08T23:16:29.854Z,22.57
2023-03-08T23:18:58.717Z,21.80
2023-03-08T23:21:27.612Z,24.17
2023-03-08T23:23:56.394Z,23.53
2023-03-08T23:26:26.967Z,25.07
2023-03-08T23:28:56.018Z,24.03
2023-03-08T23:31:27.367Z,33.10
2023-03-08T23:33:55.632Z,32.00
2023-03-08T23:36:25.751Z,27.37
2023-03-08T23:38:55.071Z,30.23
2023-03-08T23:41:24.976Z,25.50
2023-03-08T23:43:56.458Z,26.07
2023-03-08T23:46:24.545Z,30.47
2023-03-08T23:48:55.576Z,30.07
2023-03-08T23:51:24.053Z,25.70
2023-03-08T23:53:53.912Z,24.80
2023-03-08T23:56:31.044Z,27.33
2023-03-08T23:59:00.762Z,24.57
